sensor_id;sensor_type;location;lat;lon;timestamp;P1;durP1;ratioP1;P2;durP2;ratioP2
56267;SDS011;42175;46.930;9.532;2023-08-24T00:02:06;17.00;;;9.48;;
56267;SDS011;42175;46.930;9.532;2023-08-24T00:04:32;15.38;;;11.18;;
56267;SDS011;42175;46.930;9.532;2023-08-24T00:06:59;20.67;;;9.45;;
56267;SDS011;42175;46.930;9.532;2023-08-24T00:09:25;16.70;;;10.32;;
56267;SDS011;42175;46.930;9.532;2023-08-24T00:11:52;13.82;;;9.63;;
56267;SDS011;42175;46.930;9.532;2023-08-24T00:14:18;20.05;;;10.13;;
56267;SDS011;42175;46.930;9.532;2023-08-24T00:16:44;18.35;;;9.70;;
56267;SDS011;42175;46.930;9.532;2023-08-24T00:19:10;15.98;;;9.27;;
56267;SDS011;42175;46.930;9.532;2023-08-24T00:21:36;18.10;;;9.88;;
56267;SDS011;42175;46.930;9.532;2023-08-24T00:24:02;20.50;;;9.75;;
56267;SDS011;42175;46.930;9.532;2023-08-24T00:26:27;16.20;;;10.10;;
56267;SDS011;42175;46.930;9.532;2023-08-24T00:28:53;19.42;;;10.15;;
56267;SDS011;42175;46.930;9.532;2023-08-24T00:31:19;23.98;;;9.55;;
56267;SDS011;42175;46.930;9.532;2023-08-24T00:33:45;18.83;;;9.50;;
56267;SDS011;42175;46.930;9.532;2023-08-24T00:36:11;13.80;;;9.48;;
56267;SDS011;42175;46.930;9.532;2023-08-24T00:38:36;14.15;;;9.43;;
56267;SDS011;42175;46.930;9.532;2023-08-24T00:41:03;16.27;;;9.90;;
56267;SDS011;42175;46.930;9.532;2023-08-24T00:43:29;18.73;;;9.60;;
56267;SDS011;42175;46.930;9.532;2023-08-24T00:45:59;15.57;;;9.45;;
56267;SDS011;42175;46.930;9.532;2023-08-24T00:48:26;15.98;;;9.77;;
56267;SDS011;42175;46.930;9.532;2023-08-24T00:51:00;18.42;;;10.82;;
56267;SDS011;42175;46.930;9.532;2023-08-24T00:53:27;20.85;;;10.52;;
56267;SDS011;42175;46.930;9.532;2023-08-24T00:55:54;20.35;;;10.07;;
56267;SDS011;42175;46.930;9.532;2023-08-24T00:58:20;19.77;;;10.05;;
56267;SDS011;42175;46.930;9.532;2023-08-24T01:00:48;21.83;;;10.25;;
56267;SDS011;42175;46.930;9.532;2023-08-24T01:03:16;18.20;;;11.00;;
56267;SDS011;42175;46.930;9.532;2023-08-24T01:05:41;14.25;;;10.02;;
56267;SDS011;42175;46.930;9.532;2023-08-24T01:08:08;18.33;;;9.73;;
56267;SDS011;42175;46.930;9.532;2023-08-24T01:10:41;16.30;;;9.65;;
56267;SDS011;42175;46.930;9.532;2023-08-24T01:13:38;21.13;;;10.38;;
56267;SDS011;42175;46.930;9.532;2023-08-24T01:16:13;18.45;;;9.60;;
56267;SDS011;42175;46.930;9.532;2023-08-24T01:18:43;16.25;;;9.60;;
56267;SDS011;42175;46.930;9.532;2023-08-24T01:21:10;13.15;;;10.00;;
56267;SDS011;42175;46.930;9.532;2023-08-24T01:23:41;19.80;;;10.18;;
56267;SDS011;42175;46.930;9.532;2023-08-24T01:28:45;18.08;;;10.13;;
56267;SDS011;42175;46.930;9.532;2023-08-24T01:31:15;14.75;;;9.55;;
56267;SDS011;42175;46.930;9.532;2023-08-24T01:33:42;19.65;;;10.30;;
56267;SDS011;42175;46.930;9.532;2023-08-24T01:36:09;16.52;;;10.45;;
56267;SDS011;42175;46.930;9.532;2023-08-24T01:38:37;15.25;;;9.48;;
56267;SDS011;42175;46.930;9.532;2023-08-24T01:41:14;20.52;;;10.23;;
56267;SDS011;42175;46.930;9.532;2023-08-24T01:43:46;17.23;;;10.23;;
56267;SDS011;42175;46.930;9.532;2023-08-24T01:46:18;18.02;;;9.55;;
56267;SDS011;42175;46.930;9.532;2023-08-24T01:48:46;15.27;;;9.80;;
56267;SDS011;42175;46.930;9.532;2023-08-24T01:51:13;16.50;;;9.30;;
56267;SDS011;42175;46.930;9.532;2023-08-24T01:53:40;19.10;;;9.93;;
56267;SDS011;42175;46.930;9.532;2023-08-24T01:56:10;18.13;;;9.55;;
56267;SDS011;42175;46.930;9.532;2023-08-24T01:58:37;15.45;;;10.05;;
56267;SDS011;42175;46.930;9.532;2023-08-24T02:01:04;19.02;;;10.30;;
56267;SDS011;42175;46.930;9.532;2023-08-24T02:03:30;17.08;;;9.48;;
56267;SDS011;42175;46.930;9.532;2023-08-24T02:05:56;16.55;;;10.20;;
56267;SDS011;42175;46.930;9.532;2023-08-24T02:08:22;20.48;;;9.90;;
56267;SDS011;42175;46.930;9.532;2023-08-24T02:10:48;20.70;;;9.88;;
56267;SDS011;42175;46.930;9.532;2023-08-24T02:13:13;16.45;;;9.57;;
56267;SDS011;42175;46.930;9.532;2023-08-24T02:15:39;23.85;;;9.98;;
56267;SDS011;42175;46.930;9.532;2023-08-24T02:18:06;15.95;;;10.05;;
56267;SDS011;42175;46.930;9.532;2023-08-24T02:20:35;15.43;;;9.30;;
56267;SDS011;42175;46.930;9.532;2023-08-24T02:23:02;22.75;;;9.63;;
56267;SDS011;42175;46.930;9.532;2023-08-24T02:25:28;29.05;;;9.95;;
56267;SDS011;42175;46.930;9.532;2023-08-24T02:27:54;18.83;;;9.70;;
56267;SDS011;42175;46.930;9.532;2023-08-24T02:30:20;15.63;;;10.15;;
56267;SDS011;42175;46.930;9.532;2023-08-24T02:32:46;17.00;;;9.57;;
56267;SDS011;42175;46.930;9.532;2023-08-24T02:35:12;17.73;;;9.50;;
56267;SDS011;42175;46.930;9.532;2023-08-24T02:37:37;15.00;;;9.75;;
56267;SDS011;42175;46.930;9.532;2023-08-24T02:40:04;18.73;;;9.43;;
56267;SDS011;42175;46.930;9.532;2023-08-24T02:42:31;17.38;;;10.60;;
56267;SDS011;42175;46.930;9.532;2023-08-24T02:44:59;17.80;;;10.02;;
56267;SDS011;42175;46.930;9.532;2023-08-24T02:47:24;17.55;;;9.18;;
56267;SDS011;42175;46.930;9.532;2023-08-24T02:49:50;15.75;;;9.15;;
56267;SDS011;42175;46.930;9.532;2023-08-24T02:52:16;18.35;;;9.30;;
56267;SDS011;42175;46.930;9.532;2023-08-24T02:54:42;21.80;;;10.18;;
56267;SDS011;42175;46.930;9.532;2023-08-24T02:57:08;22.65;;;9.82;;
56267;SDS011;42175;46.930;9.532;2023-08-24T02:59:34;21.48;;;9.25;;
56267;SDS011;42175;46.930;9.532;2023-08-24T03:02:00;25.83;;;10.73;;
56267;SDS011;42175;46.930;9.532;2023-08-24T03:04:26;21.00;;;10.15;;
56267;SDS011;42175;46.930;9.532;2023-08-24T03:06:52;18.33;;;9.30;;
56267;SDS011;42175;46.930;9.532;2023-08-24T03:09:18;15.40;;;9.23;;
56267;SDS011;42175;46.930;9.532;2023-08-24T03:11:43;17.90;;;9.20;;
56267;SDS011;42175;46.930;9.532;2023-08-24T03:14:09;18.83;;;10.43;;
56267;SDS011;42175;46.930;9.532;2023-08-24T03:16:37;17.13;;;9.50;;
56267;SDS011;42175;46.930;9.532;2023-08-24T03:19:04;18.40;;;10.02;;
56267;SDS011;42175;46.930;9.532;2023-08-24T03:21:30;22.25;;;10.00;;
56267;SDS011;42175;46.930;9.532;2023-08-24T03:23:56;17.55;;;9.57;;
56267;SDS011;42175;46.930;9.532;2023-08-24T03:26:22;19.92;;;9.05;;
56267;SDS011;42175;46.930;9.532;2023-08-24T03:28:48;21.35;;;9.48;;
56267;SDS011;42175;46.930;9.532;2023-08-24T03:31:15;19.05;;;9.68;;
56267;SDS011;42175;46.930;9.532;2023-08-24T03:33:41;21.17;;;10.48;;
56267;SDS011;42175;46.930;9.532;2023-08-24T03:36:07;19.88;;;10.05;;
56267;SDS011;42175;46.930;9.532;2023-08-24T03:38:32;21.90;;;10.05;;
56267;SDS011;42175;46.930;9.532;2023-08-24T03:41:02;21.88;;;10.85;;
56267;SDS011;42175;46.930;9.532;2023-08-24T03:43:31;22.23;;;10.35;;
56267;SDS011;42175;46.930;9.532;2023-08-24T03:45:58;20.88;;;9.07;;
56267;SDS011;42175;46.930;9.532;2023-08-24T03:48:24;16.55;;;9.10;;
56267;SDS011;42175;46.930;9.532;2023-08-24T03:50:53;17.50;;;10.00;;
56267;SDS011;42175;46.930;9.532;2023-08-24T03:53:20;23.60;;;10.38;;
56267;SDS011;42175;46.930;9.532;2023-08-24T03:55:49;16.55;;;10.20;;
56267;SDS011;42175;46.930;9.532;2023-08-24T03:58:18;25.10;;;9.95;;
56267;SDS011;42175;46.930;9.532;2023-08-24T04:00:44;17.13;;;9.75;;
56267;SDS011;42175;46.930;9.532;2023-08-24T04:03:10;19.27;;;9.82;;
56267;SDS011;42175;46.930;9.532;2023-08-24T04:05:36;23.88;;;9.40;;
56267;SDS011;42175;46.930;9.532;2023-08-24T04:08:02;20.80;;;10.10;;
56267;SDS011;42175;46.930;9.532;2023-08-24T04:10:29;26.88;;;8.98;;
56267;SDS011;42175;46.930;9.532;2023-08-24T04:12:55;17.67;;;8.73;;
56267;SDS011;42175;46.930;9.532;2023-08-24T04:15:21;18.23;;;9.65;;
56267;SDS011;42175;46.930;9.532;2023-08-24T04:17:47;22.95;;;10.32;;
56267;SDS011;42175;46.930;9.532;2023-08-24T04:20:13;19.42;;;10.27;;
56267;SDS011;42175;46.930;9.532;2023-08-24T04:22:39;18.80;;;9.40;;
56267;SDS011;42175;46.930;9.532;2023-08-24T04:25:05;15.50;;;8.35;;
56267;SDS011;42175;46.930;9.532;2023-08-24T04:27:32;19.15;;;8.88;;
56267;SDS011;42175;46.930;9.532;2023-08-24T04:29:58;24.25;;;9.73;;
56267;SDS011;42175;46.930;9.532;2023-08-24T04:32:24;18.13;;;8.43;;
56267;SDS011;42175;46.930;9.532;2023-08-24T04:34:50;18.88;;;9.15;;
56267;SDS011;42175;46.930;9.532;2023-08-24T04:37:16;25.73;;;8.65;;
56267;SDS011;42175;46.930;9.532;2023-08-24T04:39:42;18.67;;;9.73;;
56267;SDS011;42175;46.930;9.532;2023-08-24T04:42:07;24.50;;;9.18;;
56267;SDS011;42175;46.930;9.532;2023-08-24T04:44:33;25.38;;;10.88;;
56267;SDS011;42175;46.930;9.532;2023-08-24T04:46:59;24.98;;;11.27;;
56267;SDS011;42175;46.930;9.532;2023-08-24T04:49:25;28.38;;;11.48;;
56267;SDS011;42175;46.930;9.532;2023-08-24T04:51:51;27.67;;;11.30;;
56267;SDS011;42175;46.930;9.532;2023-08-24T04:54:17;33.90;;;11.18;;
56267;SDS011;42175;46.930;9.532;2023-08-24T04:56:42;28.23;;;11.43;;
56267;SDS011;42175;46.930;9.532;2023-08-24T04:59:08;24.40;;;10.65;;
56267;SDS011;42175;46.930;9.532;2023-08-24T05:01:35;25.58;;;10.85;;
56267;SDS011;42175;46.930;9.532;2023-08-24T05:04:02;21.50;;;10.27;;
56267;SDS011;42175;46.930;9.532;2023-08-24T05:06:28;25.38;;;10.43;;
56267;SDS011;42175;46.930;9.532;2023-08-24T05:08:54;35.17;;;11.40;;
56267;SDS011;42175;46.930;9.532;2023-08-24T05:11:21;20.00;;;10.35;;
56267;SDS011;42175;46.930;9.532;2023-08-24T05:13:49;22.77;;;10.77;;
56267;SDS011;42175;46.930;9.532;2023-08-24T05:16:15;21.20;;;10.32;;
56267;SDS011;42175;46.930;9.532;2023-08-24T05:18:41;21.88;;;10.45;;
56267;SDS011;42175;46.930;9.532;2023-08-24T05:21:07;23.08;;;9.88;;
56267;SDS011;42175;46.930;9.532;2023-08-24T05:23:33;20.85;;;10.60;;
56267;SDS011;42175;46.930;9.532;2023-08-24T05:26:01;22.02;;;10.23;;
56267;SDS011;42175;46.930;9.532;2023-08-24T05:28:28;20.08;;;9.00;;
56267;SDS011;42175;46.930;9.532;2023-08-24T05:30:54;20.75;;;9.27;;
56267;SDS011;42175;46.930;9.532;2023-08-24T05:33:21;27.83;;;10.20;;
56267;SDS011;42175;46.930;9.532;2023-08-24T05:35:48;25.48;;;10.73;;
56267;SDS011;42175;46.930;9.532;2023-08-24T05:38:15;22.88;;;10.27;;
56267;SDS011;42175;46.930;9.532;2023-08-24T05:40:47;23.83;;;10.48;;
56267;SDS011;42175;46.930;9.532;2023-08-24T05:43:13;34.40;;;9.95;;
56267;SDS011;42175;46.930;9.532;2023-08-24T05:45:39;31.75;;;10.50;;
56267;SDS011;42175;46.930;9.532;2023-08-24T05:48:06;29.23;;;10.15;;
56267;SDS011;42175;46.930;9.532;2023-08-24T05:50:32;35.03;;;11.18;;
56267;SDS011;42175;46.930;9.532;2023-08-24T05:52:58;24.92;;;10.82;;
56267;SDS011;42175;46.930;9.532;2023-08-24T05:55:24;26.15;;;10.05;;
56267;SDS011;42175;46.930;9.532;2023-08-24T05:57:50;24.25;;;10.30;;
56267;SDS011;42175;46.930;9.532;2023-08-24T06:00:16;29.02;;;10.15;;
56267;SDS011;42175;46.930;9.532;2023-08-24T06:02:42;25.67;;;9.68;;
56267;SDS011;42175;46.930;9.532;2023-08-24T06:05:08;65.72;;;16.05;;
56267;SDS011;42175;46.930;9.532;2023-08-24T06:07:34;52.63;;;15.35;;
56267;SDS011;42175;46.930;9.532;2023-08-24T06:10:01;41.03;;;12.77;;
56267;SDS011;42175;46.930;9.532;2023-08-24T06:12:27;37.25;;;11.75;;
56267;SDS011;42175;46.930;9.532;2023-08-24T06:14:54;30.10;;;11.30;;
56267;SDS011;42175;46.930;9.532;2023-08-24T06:17:20;44.55;;;10.98;;
56267;SDS011;42175;46.930;9.532;2023-08-24T06:19:46;31.85;;;10.35;;
56267;SDS011;42175;46.930;9.532;2023-08-24T06:22:12;32.40;;;10.57;;
56267;SDS011;42175;46.930;9.532;2023-08-24T06:24:38;44.88;;;10.40;;
56267;SDS011;42175;46.930;9.532;2023-08-24T06:27:04;32.70;;;10.65;;
56267;SDS011;42175;46.930;9.532;2023-08-24T06:29:30;26.77;;;10.52;;
56267;SDS011;42175;46.930;9.532;2023-08-24T06:31:55;32.83;;;12.55;;
56267;SDS011;42175;46.930;9.532;2023-08-24T06:34:21;47.22;;;13.32;;
56267;SDS011;42175;46.930;9.532;2023-08-24T06:36:47;38.25;;;12.05;;
56267;SDS011;42175;46.930;9.532;2023-08-24T06:39:15;37.08;;;11.93;;
56267;SDS011;42175;46.930;9.532;2023-08-24T06:41:41;36.25;;;12.57;;
56267;SDS011;42175;46.930;9.532;2023-08-24T06:44:07;24.45;;;9.93;;
56267;SDS011;42175;46.930;9.532;2023-08-24T06:46:32;46.92;;;10.90;;
56267;SDS011;42175;46.930;9.532;2023-08-24T06:48:58;30.92;;;10.75;;
56267;SDS011;42175;46.930;9.532;2023-08-24T06:51:27;28.42;;;9.90;;
56267;SDS011;42175;46.930;9.532;2023-08-24T06:53:53;38.20;;;11.52;;
56267;SDS011;42175;46.930;9.532;2023-08-24T06:56:19;33.75;;;12.02;;
56267;SDS011;42175;46.930;9.532;2023-08-24T06:58:45;34.35;;;11.68;;
56267;SDS011;42175;46.930;9.532;2023-08-24T07:01:12;37.03;;;11.30;;
56267;SDS011;42175;46.930;9.532;2023-08-24T07:03:38;46.85;;;12.20;;
56267;SDS011;42175;46.930;9.532;2023-08-24T07:06:07;30.98;;;10.25;;
56267;SDS011;42175;46.930;9.532;2023-08-24T07:08:33;26.35;;;10.07;;
56267;SDS011;42175;46.930;9.532;2023-08-24T07:11:00;28.02;;;11.48;;
56267;SDS011;42175;46.930;9.532;2023-08-24T07:13:27;35.10;;;10.02;;
56267;SDS011;42175;46.930;9.532;2023-08-24T07:15:53;21.60;;;9.88;;
56267;SDS011;42175;46.930;9.532;2023-08-24T07:18:20;29.40;;;10.20;;
56267;SDS011;42175;46.930;9.532;2023-08-24T07:20:46;24.50;;;10.00;;
56267;SDS011;42175;46.930;9.532;2023-08-24T07:23:12;34.85;;;10.30;;
56267;SDS011;42175;46.930;9.532;2023-08-24T07:25:38;24.83;;;9.75;;
56267;SDS011;42175;46.930;9.532;2023-08-24T07:28:04;24.50;;;10.10;;
56267;SDS011;42175;46.930;9.532;2023-08-24T07:30:31;29.77;;;10.65;;
56267;SDS011;42175;46.930;9.532;2023-08-24T07:32:57;36.40;;;10.18;;
56267;SDS011;42175;46.930;9.532;2023-08-24T07:35:23;30.33;;;10.77;;
56267;SDS011;42175;46.930;9.532;2023-08-24T07:37:52;34.42;;;10.93;;
56267;SDS011;42175;46.930;9.532;2023-08-24T07:40:17;34.08;;;11.48;;
56267;SDS011;42175;46.930;9.532;2023-08-24T07:42:44;33.33;;;10.88;;
56267;SDS011;42175;46.930;9.532;2023-08-24T07:45:10;27.00;;;10.05;;
56267;SDS011;42175;46.930;9.532;2023-08-24T07:47:37;33.15;;;10.35;;
56267;SDS011;42175;46.930;9.532;2023-08-24T07:50:03;41.58;;;11.02;;
56267;SDS011;42175;46.930;9.532;2023-08-24T07:52:29;28.42;;;10.68;;
56267;SDS011;42175;46.930;9.532;2023-08-24T07:54:55;31.08;;;10.52;;
56267;SDS011;42175;46.930;9.532;2023-08-24T07:57:24;34.05;;;11.40;;
56267;SDS011;42175;46.930;9.532;2023-08-24T07:59:51;30.85;;;10.57;;
56267;SDS011;42175;46.930;9.532;2023-08-24T08:02:17;33.78;;;10.13;;
56267;SDS011;42175;46.930;9.532;2023-08-24T08:04:43;30.05;;;10.50;;
56267;SDS011;42175;46.930;9.532;2023-08-24T08:07:09;31.27;;;10.98;;
56267;SDS011;42175;46.930;9.532;2023-08-24T08:09:38;31.05;;;10.40;;
56267;SDS011;42175;46.930;9.532;2023-08-24T08:12:04;33.60;;;10.23;;
56267;SDS011;42175;46.930;9.532;2023-08-24T08:14:30;29.67;;;10.75;;
56267;SDS011;42175;46.930;9.532;2023-08-24T08:16:56;37.85;;;10.07;;
56267;SDS011;42175;46.930;9.532;2023-08-24T08:19:22;38.20;;;10.95;;
56267;SDS011;42175;46.930;9.532;2023-08-24T08:21:50;29.00;;;9.73;;
56267;SDS011;42175;46.930;9.532;2023-08-24T08:24:16;27.33;;;10.90;;
56267;SDS011;42175;46.930;9.532;2023-08-24T08:26:42;38.53;;;10.90;;
56267;SDS011;42175;46.930;9.532;2023-08-24T08:29:08;30.85;;;10.48;;
56267;SDS011;42175;46.930;9.532;2023-08-24T08:31:34;34.42;;;11.10;;
56267;SDS011;42175;46.930;9.532;2023-08-24T08:33:59;32.80;;;9.80;;
56267;SDS011;42175;46.930;9.532;2023-08-24T08:36:25;23.80;;;10.27;;
56267;SDS011;42175;46.930;9.532;2023-08-24T08:38:51;38.50;;;10.18;;
56267;SDS011;42175;46.930;9.532;2023-08-24T08:41:17;34.55;;;10.45;;
56267;SDS011;42175;46.930;9.532;2023-08-24T08:43:48;31.95;;;10.27;;
56267;SDS011;42175;46.930;9.532;2023-08-24T08:46:14;34.15;;;9.65;;
56267;SDS011;42175;46.930;9.532;2023-08-24T08:48:41;37.03;;;10.77;;
56267;SDS011;42175;46.930;9.532;2023-08-24T08:51:09;36.42;;;9.90;;
56267;SDS011;42175;46.930;9.532;2023-08-24T08:53:36;26.58;;;10.45;;
56267;SDS011;42175;46.930;9.532;2023-08-24T08:56:02;21.45;;;9.75;;
56267;SDS011;42175;46.930;9.532;2023-08-24T08:58:30;34.63;;;11.32;;
56267;SDS011;42175;46.930;9.532;2023-08-24T09:00:57;31.58;;;9.57;;
56267;SDS011;42175;46.930;9.532;2023-08-24T09:03:25;24.58;;;10.43;;
56267;SDS011;42175;46.930;9.532;2023-08-24T09:05:53;23.40;;;9.73;;
56267;SDS011;42175;46.930;9.532;2023-08-24T09:08:19;23.25;;;9.82;;
56267;SDS011;42175;46.930;9.532;2023-08-24T09:10:46;27.80;;;9.27;;
56267;SDS011;42175;46.930;9.532;2023-08-24T09:13:12;38.53;;;10.90;;
56267;SDS011;42175;46.930;9.532;2023-08-24T09:15:38;28.48;;;8.70;;
56267;SDS011;42175;46.930;9.532;2023-08-24T09:18:04;31.52;;;10.65;;
56267;SDS011;42175;46.930;9.532;2023-08-24T09:20:30;31.50;;;10.23;;
56267;SDS011;42175;46.930;9.532;2023-08-24T09:22:56;32.03;;;10.13;;
56267;SDS011;42175;46.930;9.532;2023-08-24T09:25:26;25.10;;;9.73;;
56267;SDS011;42175;46.930;9.532;2023-08-24T09:28:01;28.25;;;9.95;;
56267;SDS011;42175;46.930;9.532;2023-08-24T09:30:36;26.63;;;10.30;;
56267;SDS011;42175;46.930;9.532;2023-08-24T09:33:08;26.10;;;10.27;;
56267;SDS011;42175;46.930;9.532;2023-08-24T09:35:36;27.67;;;10.43;;
56267;SDS011;42175;46.930;9.532;2023-08-24T09:40:46;27.58;;;11.02;;
56267;SDS011;42175;46.930;9.532;2023-08-24T09:43:16;32.58;;;10.48;;
56267;SDS011;42175;46.930;9.532;2023-08-24T09:45:48;32.10;;;10.30;;
56267;SDS011;42175;46.930;9.532;2023-08-24T09:48:15;25.73;;;9.73;;
56267;SDS011;42175;46.930;9.532;2023-08-24T09:50:45;28.30;;;10.75;;
56267;SDS011;42175;46.930;9.532;2023-08-24T09:53:23;23.55;;;11.00;;
56267;SDS011;42175;46.930;9.532;2023-08-24T09:56:10;22.00;;;10.20;;
56267;SDS011;42175;46.930;9.532;2023-08-24T09:58:36;38.35;;;11.02;;
56267;SDS011;42175;46.930;9.532;2023-08-24T10:01:02;34.53;;;11.07;;
56267;SDS011;42175;46.930;9.532;2023-08-24T10:03:29;33.78;;;10.50;;
56267;SDS011;42175;46.930;9.532;2023-08-24T10:05:57;24.58;;;9.55;;
56267;SDS011;42175;46.930;9.532;2023-08-24T10:08:26;22.15;;;10.00;;
56267;SDS011;42175;46.930;9.532;2023-08-24T10:10:55;32.30;;;10.68;;
56267;SDS011;42175;46.930;9.532;2023-08-24T10:16:34;33.17;;;10.35;;
56267;SDS011;42175;46.930;9.532;2023-08-24T10:19:02;24.50;;;9.48;;
56267;SDS011;42175;46.930;9.532;2023-08-24T10:21:29;27.92;;;9.95;;
56267;SDS011;42175;46.930;9.532;2023-08-24T10:23:56;34.90;;;10.32;;
56267;SDS011;42175;46.930;9.532;2023-08-24T10:26:23;41.67;;;9.45;;
56267;SDS011;42175;46.930;9.532;2023-08-24T10:28:54;31.48;;;11.07;;
56267;SDS011;42175;46.930;9.532;2023-08-24T10:31:20;30.60;;;9.02;;
56267;SDS011;42175;46.930;9.532;2023-08-24T10:33:46;33.55;;;9.90;;
56267;SDS011;42175;46.930;9.532;2023-08-24T10:36:13;32.35;;;9.18;;
56267;SDS011;42175;46.930;9.532;2023-08-24T10:38:40;34.35;;;9.80;;
56267;SDS011;42175;46.930;9.532;2023-08-24T10:41:10;30.08;;;9.43;;
56267;SDS011;42175;46.930;9.532;2023-08-24T10:43:48;37.22;;;10.00;;
56267;SDS011;42175;46.930;9.532;2023-08-24T10:46:14;40.05;;;10.50;;
56267;SDS011;42175;46.930;9.532;2023-08-24T10:53:42;36.60;;;9.90;;
56267;SDS011;42175;46.930;9.532;2023-08-24T10:56:10;38.42;;;10.85;;
56267;SDS011;42175;46.930;9.532;2023-08-24T10:58:37;28.95;;;9.25;;
56267;SDS011;42175;46.930;9.532;2023-08-24T11:01:03;32.60;;;10.35;;
56267;SDS011;42175;46.930;9.532;2023-08-24T11:03:32;39.55;;;10.25;;
56267;SDS011;42175;46.930;9.532;2023-08-24T11:05:58;24.42;;;9.55;;
56267;SDS011;42175;46.930;9.532;2023-08-24T11:11:19;29.98;;;9.02;;
56267;SDS011;42175;46.930;9.532;2023-08-24T11:16:58;30.83;;;10.57;;
56267;SDS011;42175;46.930;9.532;2023-08-24T11:19:25;36.22;;;10.25;;
56267;SDS011;42175;46.930;9.532;2023-08-24T11:21:51;33.35;;;10.95;;
56267;SDS011;42175;46.930;9.532;2023-08-24T11:24:18;32.17;;;10.57;;
56267;SDS011;42175;46.930;9.532;2023-08-24T11:26:44;39.33;;;10.07;;
56267;SDS011;42175;46.930;9.532;2023-08-24T11:29:12;30.15;;;10.07;;
56267;SDS011;42175;46.930;9.532;2023-08-24T11:31:38;30.95;;;9.70;;
56267;SDS011;42175;46.930;9.532;2023-08-24T11:34:04;47.17;;;10.18;;
56267;SDS011;42175;46.930;9.532;2023-08-24T11:36:40;48.42;;;10.13;;
56267;SDS011;42175;46.930;9.532;2023-08-24T11:39:07;53.55;;;10.38;;
56267;SDS011;42175;46.930;9.532;2023-08-24T11:41:45;48.90;;;11.57;;
56267;SDS011;42175;46.930;9.532;2023-08-24T11:44:47;43.08;;;10.10;;
56267;SDS011;42175;46.930;9.532;2023-08-24T11:47:14;41.60;;;10.73;;
56267;SDS011;42175;46.930;9.532;2023-08-24T11:49:40;33.92;;;10.25;;
56267;SDS011;42175;46.930;9.532;2023-08-24T11:52:06;36.38;;;10.35;;
56267;SDS011;42175;46.930;9.532;2023-08-24T11:54:33;36.85;;;10.18;;
56267;SDS011;42175;46.930;9.532;2023-08-24T11:57:05;42.95;;;10.90;;
56267;SDS011;42175;46.930;9.532;2023-08-24T11:59:33;43.10;;;10.10;;
56267;SDS011;42175;46.930;9.532;2023-08-24T12:02:00;32.63;;;9.07;;
56267;SDS011;42175;46.930;9.532;2023-08-24T12:04:27;42.58;;;10.18;;
56267;SDS011;42175;46.930;9.532;2023-08-24T12:06:52;45.05;;;10.57;;
56267;SDS011;42175;46.930;9.532;2023-08-24T12:09:18;32.83;;;10.40;;
56267;SDS011;42175;46.930;9.532;2023-08-24T12:11:44;36.17;;;10.15;;
56267;SDS011;42175;46.930;9.532;2023-08-24T12:14:16;31.65;;;10.02;;
56267;SDS011;42175;46.930;9.532;2023-08-24T12:16:42;33.35;;;10.73;;
56267;SDS011;42175;46.930;9.532;2023-08-24T12:19:08;33.45;;;9.95;;
56267;SDS011;42175;46.930;9.532;2023-08-24T12:21:35;37.38;;;10.63;;
56267;SDS011;42175;46.930;9.532;2023-08-24T12:24:04;30.83;;;9.77;;
56267;SDS011;42175;46.930;9.532;2023-08-24T12:26:31;33.28;;;9.98;;
56267;SDS011;42175;46.930;9.532;2023-08-24T12:29:07;38.70;;;9.00;;
56267;SDS011;42175;46.930;9.532;2023-08-24T12:31:34;46.28;;;10.05;;
56267;SDS011;42175;46.930;9.532;2023-08-24T12:34:01;35.22;;;10.65;;
56267;SDS011;42175;46.930;9.532;2023-08-24T12:36:29;27.50;;;9.02;;
56267;SDS011;42175;46.930;9.532;2023-08-24T12:38:58;30.90;;;9.45;;
56267;SDS011;42175;46.930;9.532;2023-08-24T12:41:24;31.90;;;8.07;;
56267;SDS011;42175;46.930;9.532;2023-08-24T12:43:50;24.13;;;9.25;;
56267;SDS011;42175;46.930;9.532;2023-08-24T12:46:17;26.55;;;8.40;;
56267;SDS011;42175;46.930;9.532;2023-08-24T12:48:43;29.30;;;8.98;;
56267;SDS011;42175;46.930;9.532;2023-08-24T12:51:09;28.02;;;9.05;;
56267;SDS011;42175;46.930;9.532;2023-08-24T12:53:34;24.63;;;9.23;;
56267;SDS011;42175;46.930;9.532;2023-08-24T12:56:00;27.73;;;8.10;;
56267;SDS011;42175;46.930;9.532;2023-08-24T12:58:26;21.30;;;7.93;;
56267;SDS011;42175;46.930;9.532;2023-08-24T13:00:51;19.48;;;8.85;;
56267;SDS011;42175;46.930;9.532;2023-08-24T13:03:17;21.63;;;8.43;;
56267;SDS011;42175;46.930;9.532;2023-08-24T13:05:43;26.35;;;8.98;;
56267;SDS011;42175;46.930;9.532;2023-08-24T13:08:09;28.35;;;8.60;;
56267;SDS011;42175;46.930;9.532;2023-08-24T13:10:34;21.13;;;8.07;;
56267;SDS011;42175;46.930;9.532;2023-08-24T13:13:02;21.55;;;8.25;;
56267;SDS011;42175;46.930;9.532;2023-08-24T13:15:28;22.70;;;7.43;;
56267;SDS011;42175;46.930;9.532;2023-08-24T13:17:55;19.48;;;8.80;;
56267;SDS011;42175;46.930;9.532;2023-08-24T13:20:22;25.15;;;7.40;;
56267;SDS011;42175;46.930;9.532;2023-08-24T13:22:48;20.88;;;8.65;;
56267;SDS011;42175;46.930;9.532;2023-08-24T13:25:14;21.95;;;9.05;;
56267;SDS011;42175;46.930;9.532;2023-08-24T13:27:40;26.67;;;9.43;;
56267;SDS011;42175;46.930;9.532;2023-08-24T13:30:05;28.75;;;9.23;;
56267;SDS011;42175;46.930;9.532;2023-08-24T13:32:32;20.40;;;8.55;;
56267;SDS011;42175;46.930;9.532;2023-08-24T13:35:00;40.67;;;9.27;;
56267;SDS011;42175;46.930;9.532;2023-08-24T13:37:26;29.30;;;10.05;;
56267;SDS011;42175;46.930;9.532;2023-08-24T13:39:52;29.77;;;9.82;;
56267;SDS011;42175;46.930;9.532;2023-08-24T13:42:17;30.92;;;9.10;;
56267;SDS011;42175;46.930;9.532;2023-08-24T13:44:44;29.73;;;8.85;;
56267;SDS011;42175;46.930;9.532;2023-08-24T13:47:11;44.08;;;17.13;;
56267;SDS011;42175;46.930;9.532;2023-08-24T13:49:37;44.28;;;18.52;;
56267;SDS011;42175;46.930;9.532;2023-08-24T13:52:03;43.03;;;17.00;;
56267;SDS011;42175;46.930;9.532;2023-08-24T13:54:29;48.00;;;17.70;;
56267;SDS011;42175;46.930;9.532;2023-08-24T13:56:55;39.78;;;13.18;;
56267;SDS011;42175;46.930;9.532;2023-08-24T13:59:21;50.92;;;12.25;;
56267;SDS011;42175;46.930;9.532;2023-08-24T14:01:47;34.00;;;8.35;;
56267;SDS011;42175;46.930;9.532;2023-08-24T14:04:13;29.08;;;6.22;;
56267;SDS011;42175;46.930;9.532;2023-08-24T14:06:39;25.67;;;4.35;;
56267;SDS011;42175;46.930;9.532;2023-08-24T14:09:05;21.52;;;4.82;;
56267;SDS011;42175;46.930;9.532;2023-08-24T14:11:31;27.20;;;7.05;;
56267;SDS011;42175;46.930;9.532;2023-08-24T14:13:58;29.25;;;6.65;;
56267;SDS011;42175;46.930;9.532;2023-08-24T14:16:24;33.25;;;7.13;;
56267;SDS011;42175;46.930;9.532;2023-08-24T14:18:51;24.33;;;6.80;;
56267;SDS011;42175;46.930;9.532;2023-08-24T14:21:17;30.00;;;6.15;;
56267;SDS011;42175;46.930;9.532;2023-08-24T14:23:45;24.85;;;6.57;;
56267;SDS011;42175;46.930;9.532;2023-08-24T14:26:11;27.60;;;6.85;;
56267;SDS011;42175;46.930;9.532;2023-08-24T14:31:23;33.42;;;8.73;;
56267;SDS011;42175;46.930;9.532;2023-08-24T14:33:54;27.58;;;7.15;;
56267;SDS011;42175;46.930;9.532;2023-08-24T14:36:20;28.42;;;7.38;;
56267;SDS011;42175;46.930;9.532;2023-08-24T14:38:47;40.63;;;8.40;;
56267;SDS011;42175;46.930;9.532;2023-08-24T14:41:13;32.33;;;8.25;;
56267;SDS011;42175;46.930;9.532;2023-08-24T14:43:40;40.28;;;8.18;;
56267;SDS011;42175;46.930;9.532;2023-08-24T14:46:07;37.70;;;8.07;;
56267;SDS011;42175;46.930;9.532;2023-08-24T14:48:33;30.40;;;8.02;;
56267;SDS011;42175;46.930;9.532;2023-08-24T14:51:00;43.63;;;8.95;;